Time;durP1;ratioP1;P1;durP2;ratioP2;P2;SDS_P1;SDS_P2;PMS_P1;PMS_P2;Temp;Humidity;BMP_temperature;BMP_pressure;BME280_temperature;BME280_humidity;BME280_pressure;Samples;Min_cycle;Max_cycle;Signal;HPM_P1;HPM_P2
2021/05/23 00:01:58;;;;;;;;;;;28.80;86.30;;;;;;1828686;76;20196;-90
2021/05/23 00:04:27;;;;;;;;;;;28.80;86.70;;;;;;1826402;78;20134;-88
2021/05/23 00:06:57;;;;;;;;;;;28.80;86.50;;;;;;1818073;77;20452;-89
2021/05/23 00:09:28;;;;;;;;;;;28.90;86.20;;;;;;1837150;77;20131;-90
2021/05/23 00:11:59;;;;;;;;;;;29.00;85.90;;;;;;1842793;77;20421;-88
2021/05/23 00:14:39;;;;;;;;;;;29.10;85.60;;;;;;1838415;78;20194;-89
2021/05/23 00:17:02;;;;;;;;;;;29.20;85.20;;;;;;1824095;77;20194;-89
2021/05/23 00:19:32;;;;;;;;;;;29.20;85.00;;;;;;1835769;78;20244;-90
2021/05/23 00:22:04;;;;;;;;;;;29.20;84.90;;;;;;1840990;78;20135;-90
2021/05/23 00:24:34;;;;;;;;;;;29.30;84.80;;;;;;1797376;79;20189;-89
2021/05/23 00:27:03;;;;;;;;;;;29.30;84.60;;;;;;1816798;77;20279;-90
2021/05/23 00:29:33;;;;;;;;;;;29.30;84.40;;;;;;1830102;77;20329;-89
2021/05/23 00:32:04;;;;;;;;;;;29.30;84.60;;;;;;1832724;77;20221;-90
2021/05/23 00:34:34;;;;;;;;;;;29.30;84.20;;;;;;1791587;79;20184;-88
2021/05/23 00:37:03;;;;;;;;;;;29.40;84.30;;;;;;1746352;81;20189;-89
2021/05/23 00:39:35;;;;;;;;;;;29.40;84.10;;;;;;1833026;77;20181;-89
2021/05/23 00:42:09;;;;;;;;;;;29.50;84.20;;;;;;1801973;79;20128;-89
2021/05/23 00:44:39;;;;;;;;;;;29.50;83.90;;;;;;1839602;76;20455;-89
2021/05/23 00:47:09;;;;;;;;;;;29.50;84.30;;;;;;1815242;76;20249;-88
2021/05/23 00:49:39;;;;;;;;;;;29.50;84.20;;;;;;1832941;77;20198;-90
2021/05/23 00:52:09;;;;;;;;;;;29.50;83.50;;;;;;1832389;78;20131;-89
2021/05/23 00:54:39;;;;;;;;;;;29.50;83.90;;;;;;1832060;76;20231;-88
2021/05/23 00:57:09;;;;;;;;;;;29.50;84.10;;;;;;1826893;78;20400;-90
2021/05/23 00:59:39;;;;;;;;;;;29.60;83.90;;;;;;1826354;77;20267;-90
2021/05/23 01:02:11;;;;;;;;;;;29.70;83.90;;;;;;1840312;76;20212;-89
2021/05/23 01:04:41;;;;;;;;;;;29.70;83.20;;;;;;1831177;77;20220;-89
2021/05/23 01:07:11;;;;;;;;;;;29.80;83.00;;;;;;1844588;77;20196;-89
2021/05/23 01:09:56;;;;;;;;;;;29.80;82.90;;;;;;1835448;76;20210;-88
2021/05/23 01:12:18;;;;;;;;;;;29.90;83.20;;;;;;1819992;77;20117;-89
2021/05/23 01:14:49;;;;;;;;;;;29.90;82.70;;;;;;1766464;79;20230;-88
2021/05/23 01:17:21;;;;;;;;;;;30.00;83.00;;;;;;1793848;79;20235;-88
2021/05/23 01:19:56;;;;;;;;;;;30.10;82.30;;;;;;1826488;76;20341;-89
2021/05/23 01:22:27;;;;;;;;;;;30.20;82.00;;;;;;1822472;78;20231;-89
2021/05/23 01:24:58;;;;;;;;;;;30.30;81.30;;;;;;1825694;77;20215;-89
2021/05/23 01:27:44;;;;;;;;;;;30.40;81.70;;;;;;1828401;77;20158;-90
2021/05/23 01:30:01;;;;;;;;;;;30.50;81.30;;;;;;1834634;76;20211;-91
2021/05/23 01:32:32;;;;;;;;;;;30.60;80.50;;;;;;1846178;76;20353;-88
2021/05/23 01:35:08;;;;;;;;;;;30.70;79.80;;;;;;1827463;78;20158;-90
2021/05/23 01:37:34;;;;;;;;;;;30.90;79.50;;;;;;1831089;78;20178;-91
2021/05/23 01:40:05;;;;;;;;;;;30.90;79.60;;;;;;1830741;78;20201;-91
2021/05/23 01:42:35;;;;;;;;;;;31.00;79.10;;;;;;1828875;78;20453;-89
2021/05/23 01:45:05;;;;;;;;;;;31.10;78.60;;;;;;1840738;76;20198;-88
2021/05/23 01:47:35;;;;;;;;;;;31.20;78.10;;;;;;1832561;77;20140;-88
2021/05/23 01:50:05;;;;;;;;;;;31.20;77.70;;;;;;1795873;77;20182;-89
2021/05/23 01:52:35;;;;;;;;;;;31.40;78.20;;;;;;1835317;75;20236;-90
2021/05/23 01:55:05;;;;;;;;;;;31.50;77.60;;;;;;1850719;75;20173;-87
2021/05/23 01:57:37;;;;;;;;;;;31.60;76.80;;;;;;1813525;76;20161;-90
2021/05/23 02:00:08;;;;;;;;;;;31.70;76.30;;;;;;1834818;75;20183;-90
2021/05/23 02:02:40;;;;;;;;;;;31.90;76.40;;;;;;1836716;76;20342;-87
2021/05/23 02:05:10;;;;;;;;;;;31.90;75.70;;;;;;1820583;77;20192;-88
2021/05/23 02:07:41;;;;;;;;;;;32.10;75.70;;;;;;1844587;76;20281;-90
2021/05/23 02:10:14;;;;;;;;;;;32.20;75.40;;;;;;1856048;76;20181;-88
2021/05/23 02:12:47;;;;;;;;;;;32.30;73.80;;;;;;1822670;78;20215;-90
2021/05/23 02:15:18;;;;;;;;;;;32.40;73.50;;;;;;1827304;76;20158;-90
2021/05/23 02:17:48;;;;;;;;;;;32.40;73.90;;;;;;1839413;76;20238;-90
2021/05/23 02:20:21;;;;;;;;;;;32.50;73.00;;;;;;1834219;76;20201;-89
2021/05/23 02:22:57;;;;;;;;;;;32.60;73.30;;;;;;1833789;77;20217;-89
2021/05/23 02:25:22;;;;;;;;;;;32.60;72.50;;;;;;1830109;77;20265;-90
2021/05/23 02:27:54;;;;;;;;;;;32.60;72.10;;;;;;1835455;77;20357;-87
2021/05/23 02:30:25;;;;;;;;;;;32.70;73.00;;;;;;1823853;76;20221;-88
2021/05/23 02:32:56;;;;;;;;;;;32.70;71.60;;;;;;1833646;77;20174;-88
2021/05/23 02:35:31;;;;;;;;;;;32.80;72.40;;;;;;1798449;79;20212;-88
2021/05/23 02:38:03;;;;;;;;;;;33.00;72.00;;;;;;1829208;77;20199;-90
2021/05/23 02:40:34;;;;;;;;;;;33.00;70.90;;;;;;1835774;77;20157;-90
2021/05/23 02:43:07;;;;;;;;;;;33.10;71.20;;;;;;1823286;78;20227;-90
2021/05/23 02:45:36;;;;;;;;;;;33.20;70.70;;;;;;1824168;77;20235;-89
2021/05/23 02:48:06;;;;;;;;;;;33.20;69.80;;;;;;1826437;78;20180;-89
2021/05/23 02:50:38;;;;;;;;;;;33.30;70.70;;;;;;1790297;79;20129;-90
2021/05/23 02:53:08;;;;;;;;;;;33.40;70.30;;;;;;1786560;80;20245;-88
2021/05/23 02:55:40;;;;;;;;;;;33.40;69.60;;;;;;1837509;77;20179;-90
2021/05/23 02:58:14;;;;;;;;;;;33.50;69.30;;;;;;1838202;77;20232;-90
2021/05/23 03:00:43;;;;;;;;;;;33.70;69.40;;;;;;1830733;77;20144;-90
2021/05/23 03:03:13;;;;;;;;;;;33.80;67.80;;;;;;1841625;76;20147;-90
2021/05/23 03:05:43;;;;;;;;;;;33.90;66.30;;;;;;1852116;76;20198;-91
2021/05/23 03:08:13;;;;;;;;;;;33.90;67.10;;;;;;1845008;77;20181;-91
2021/05/23 03:10:44;;;;;;;;;;;34.00;68.10;;;;;;1856042;77;20154;-89
2021/05/23 03:13:16;;;;;;;;;;;34.00;67.70;;;;;;1858773;76;20208;-89
2021/05/23 03:15:46;;;;;;;;;;;34.10;67.20;;;;;;1811004;78;20159;-90
2021/05/23 03:18:18;;;;;;;;;;;34.20;65.80;;;;;;1765647;81;20253;-92
2021/05/23 03:20:51;;;;;;;;;;;34.20;65.10;;;;;;1781230;79;20152;-78
2021/05/23 03:23:21;;;;;;;;;;;34.20;65.40;;;;;;1835695;78;20165;-78
2021/05/23 03:25:51;;;;;;;;;;;34.10;65.70;;;;;;1832422;77;20224;-78
2021/05/23 03:28:21;;;;;;;;;;;34.20;66.60;;;;;;1824718;77;20223;-78
2021/05/23 03:30:51;;;;;;;;;;;34.20;67.40;;;;;;1832200;77;20208;-79
2021/05/23 03:33:21;;;;;;;;;;;34.30;65.80;;;;;;1839319;77;20520;-79
2021/05/23 03:35:51;;;;;;;;;;;34.40;64.50;;;;;;1842472;77;20235;-78
2021/05/23 03:38:21;;;;;;;;;;;34.40;65.60;;;;;;1835424;77;20178;-78
2021/05/23 03:40:51;;;;;;;;;;;34.50;65.00;;;;;;1826306;77;20287;-79
2021/05/23 03:43:21;;;;;;;;;;;34.50;65.10;;;;;;1836070;77;20239;-79
2021/05/23 03:45:51;;;;;;;;;;;34.60;65.20;;;;;;1841913;77;20890;-77
2021/05/23 03:48:21;;;;;;;;;;;34.80;64.60;;;;;;1834703;77;20202;-79
2021/05/23 03:50:51;;;;;;;;;;;34.80;63.50;;;;;;1832764;77;20181;-77
2021/05/23 03:53:20;;;;;;;;;;;34.90;63.10;;;;;;1857010;76;20195;-79
2021/05/23 03:55:50;;;;;;;;;;;34.90;63.40;;;;;;1843255;76;20162;-77
2021/05/23 04:01:14;;;;;;;;;;;34.90;63.10;;;;;;1796212;78;20494;-79
2021/05/23 04:03:45;;;;;;;;;;;34.90;64.20;;;;;;1798638;77;20191;-79
2021/05/23 04:06:15;;;;;;;;;;;35.00;63.70;;;;;;1816479;77;20492;-86
2021/05/23 04:08:46;;;;;;;;;;;35.00;63.20;;;;;;1806691;78;20219;-80
2021/05/23 04:11:20;;;;;;;;;;;35.10;63.10;;;;;;1815402;78;20172;-80
2021/05/23 04:13:51;;;;;;;;;;;35.20;63.10;;;;;;1803648;78;20556;-79
2021/05/23 04:16:22;;;;;;;;;;;35.20;62.50;;;;;;1810061;78;20204;-79
2021/05/23 04:18:53;;;;;;;;;;;35.30;62.00;;;;;;1782363;79;20157;-79
2021/05/23 04:21:41;;;;;;;;;;;35.30;61.60;;;;;;1810029;77;20131;-79
2021/05/23 04:24:11;;;;;;;;;;;35.40;60.00;;;;;;1780914;79;20455;-78
2021/05/23 04:26:41;;;;;;;;;;;35.40;60.30;;;;;;1791017;78;20217;-77
2021/05/23 04:29:11;;;;;;;;;;;35.50;60.70;;;;;;1771987;78;20256;-76
2021/05/23 04:31:41;;;;;;;;;;;35.50;60.70;;;;;;1826321;78;20449;-78
2021/05/23 04:34:12;;;;;;;;;;;35.50;60.70;;;;;;1818380;78;20439;-78
2021/05/23 04:36:41;;;;;;;;;;;35.50;59.70;;;;;;1816242;79;20211;-78
2021/05/23 04:39:11;;;;;;;;;;;35.60;60.60;;;;;;1813222;77;20204;-83
2021/05/23 04:41:41;;;;;;;;;;;35.60;60.00;;;;;;1798414;78;20173;-78
2021/05/23 04:44:11;;;;;;;;;;;35.70;59.30;;;;;;1796005;78;20139;-77
2021/05/23 04:46:41;;;;;;;;;;;35.80;59.30;;;;;;1799874;78;20225;-78
2021/05/23 04:49:11;;;;;;;;;;;35.70;58.20;;;;;;1815289;77;20481;-78
2021/05/23 04:51:40;;;;;;;;;;;35.80;59.10;;;;;;1810175;78;20212;-78
2021/05/23 04:54:10;;;;;;;;;;;35.80;58.20;;;;;;1808375;78;20216;-78
2021/05/23 04:56:40;;;;;;;;;;;35.80;57.90;;;;;;1804612;77;20216;-78
2021/05/23 04:59:10;;;;;;;;;;;35.80;57.90;;;;;;1808762;79;20212;-78
2021/05/23 05:01:39;;;;;;;;;;;35.80;57.90;;;;;;1812704;78;20267;-81
2021/05/23 05:04:09;;;;;;;;;;;35.90;58.10;;;;;;1815058;78;20486;-81
2021/05/23 05:06:39;;;;;;;;;;;35.90;56.70;;;;;;1809610;79;20479;-82
2021/05/23 05:09:09;;;;;;;;;;;36.00;56.50;;;;;;1817303;78;20440;-77
2021/05/23 05:11:39;;;;;;;;;;;36.00;56.60;;;;;;1813450;78;20235;-79
2021/05/23 05:14:10;;;;;;;;;;;36.00;57.30;;;;;;1810305;77;20506;-78
2021/05/23 05:16:41;;;;;;;;;;;36.00;57.00;;;;;;1784913;78;20135;-77
2021/05/23 05:19:11;;;;;;;;;;;36.00;56.40;;;;;;1798939;78;20221;-78
2021/05/23 05:21:40;;;;;;;;;;;36.00;57.20;;;;;;1790199;78;20181;-78
2021/05/23 05:24:11;;;;;;;;;;;36.00;57.20;;;;;;1800363;78;20503;-79
2021/05/23 05:26:41;;;;;;;;;;;36.00;57.50;;;;;;1811382;79;20525;-79
2021/05/23 05:29:11;;;;;;;;;;;36.00;57.00;;;;;;1812105;78;20431;-80
2021/05/23 05:31:40;;;;;;;;;;;36.10;57.30;;;;;;1784408;78;20184;-80
2021/05/23 05:34:10;;;;;;;;;;;36.20;57.20;;;;;;1771466;79;20536;-80
2021/05/23 05:42:59;;;;;;;;;;;36.50;56.40;;;;;;1817322;76;20193;-80
2021/05/23 05:45:29;;;;;;;;;;;36.60;56.20;;;;;;1837355;77;20174;-79
2021/05/23 05:47:58;;;;;;;;;;;36.60;55.80;;;;;;1820479;77;20197;-80
2021/05/23 05:50:28;;;;;;;;;;;36.60;57.00;;;;;;1824533;77;20470;-81
2021/05/23 05:52:58;;;;;;;;;;;36.70;55.80;;;;;;1823920;77;20198;-81
2021/05/23 05:55:28;;;;;;;;;;;36.70;53.60;;;;;;1817788;77;20171;-80
2021/05/23 05:57:58;;;;;;;;;;;36.60;53.10;;;;;;1798984;77;20160;-80
2021/05/23 06:00:28;;;;;;;;;;;36.60;56.00;;;;;;1821025;77;20749;-81
2021/05/23 06:03:01;;;;;;;;;;;36.60;52.90;;;;;;1826483;77;20170;-81
2021/05/23 06:05:29;;;;;;;;;;;36.60;52.90;;;;;;1825970;77;20219;-79
2021/05/23 06:07:59;;;;;;;;;;;36.50;53.10;;;;;;1800821;79;20173;-79
2021/05/23 06:10:30;;;;;;;;;;;36.50;54.20;;;;;;1773797;80;20308;-80
2021/05/23 06:13:00;;;;;;;;;;;36.50;52.80;;;;;;1833527;78;20190;-77
2021/05/23 06:15:32;;;;;;;;;;;36.50;53.80;;;;;;1839617;76;20252;-79
2021/05/23 06:18:02;;;;;;;;;;;36.40;54.10;;;;;;1828445;77;20280;-79
2021/05/23 06:20:32;;;;;;;;;;;36.40;53.50;;;;;;1837674;76;20183;-79
2021/05/23 06:23:03;;;;;;;;;;;36.30;52.60;;;;;;1828471;77;20176;-79
2021/05/23 06:25:33;;;;;;;;;;;36.40;52.80;;;;;;1827187;77;20216;-81
2021/05/23 06:28:03;;;;;;;;;;;36.40;52.40;;;;;;1846201;76;20224;-80
2021/05/23 06:30:33;;;;;;;;;;;36.50;51.60;;;;;;1825851;76;20174;-81
2021/05/23 06:33:02;;;;;;;;;;;36.50;50.80;;;;;;1808923;78;20195;-78
2021/05/23 06:35:33;;;;;;;;;;;36.40;49.70;;;;;;1847962;77;20542;-79
2021/05/23 06:38:03;;;;;;;;;;;36.30;51.00;;;;;;1817628;77;20204;-79
2021/05/23 06:40:33;;;;;;;;;;;36.20;51.90;;;;;;1839017;76;20261;-80
2021/05/23 06:43:03;;;;;;;;;;;36.10;51.70;;;;;;1805132;78;20486;-79
2021/05/23 06:45:33;;;;;;;;;;;36.00;51.80;;;;;;1829507;77;20176;-78
2021/05/23 06:48:02;;;;;;;;;;;36.00;52.40;;;;;;1803596;78;20235;-79
2021/05/23 06:50:32;;;;;;;;;;;36.00;52.70;;;;;;1779530;79;20215;-80
2021/05/23 06:53:21;;;;;;;;;;;36.10;53.50;;;;;;1809079;78;20189;-79
2021/05/23 06:55:51;;;;;;;;;;;36.20;51.40;;;;;;1824400;78;20134;-79
2021/05/23 06:58:21;;;;;;;;;;;36.30;52.10;;;;;;1812663;77;20524;-77
2021/05/23 07:00:52;;;;;;;;;;;36.40;50.90;;;;;;1807741;78;20488;-78
2021/05/23 07:06:07;;;;;;;;;;;36.60;50.20;;;;;;1815389;78;20187;-79
2021/05/23 07:08:37;;;;;;;;;;;36.60;50.20;;;;;;1818068;78;20170;-78
2021/05/23 07:11:07;;;;;;;;;;;36.60;51.00;;;;;;1828034;78;20168;-79
2021/05/23 07:13:37;;;;;;;;;;;36.60;49.70;;;;;;1819220;78;20186;-79
2021/05/23 07:16:07;;;;;;;;;;;36.50;49.10;;;;;;1789453;79;20448;-80
2021/05/23 07:18:37;;;;;;;;;;;36.50;49.10;;;;;;1781306;78;20154;-79
2021/05/23 07:21:07;;;;;;;;;;;36.50;49.10;;;;;;1829989;77;20505;-79
2021/05/23 07:23:43;;;;;;;;;;;36.50;48.80;;;;;;1831149;77;20198;-81
2021/05/23 07:26:22;;;;;;;;;;;36.50;49.10;;;;;;1840700;77;20222;-80
2021/05/23 07:28:53;;;;;;;;;;;36.60;50.50;;;;;;1830450;77;20624;-80
2021/05/23 07:31:23;;;;;;;;;;;36.60;49.50;;;;;;1797830;79;20420;-80
2021/05/23 07:33:53;;;;;;;;;;;36.60;49.50;;;;;;1806051;78;20231;-80
2021/05/23 07:36:24;;;;;;;;;;;36.50;50.10;;;;;;1771999;81;20203;-79
2021/05/23 07:38:58;;;;;;;;;;;36.60;49.90;;;;;;1781268;79;20272;-81
2021/05/23 07:41:31;;;;;;;;;;;36.60;48.70;;;;;;1767129;80;20163;-79
2021/05/23 07:44:03;;;;;;;;;;;36.60;49.00;;;;;;1775857;80;20641;-79
2021/05/23 07:46:34;;;;;;;;;;;36.60;48.30;;;;;;1770494;79;20168;-80
2021/05/23 07:49:07;;;;;;;;;;;36.50;46.30;;;;;;1758350;80;20139;-77
2021/05/23 07:51:47;;;;;;;;;;;36.50;46.30;;;;;;1811518;78;20184;-79
2021/05/23 07:54:17;;;;;;;;;;;36.60;47.80;;;;;;1826927;78;20292;-79
2021/05/23 07:56:50;;;;;;;;;;;36.60;46.50;;;;;;1824712;78;20245;-80
2021/05/23 07:59:20;;;;;;;;;;;36.70;46.00;;;;;;1829808;78;20506;-80
2021/05/23 08:01:50;;;;;;;;;;;36.70;45.60;;;;;;1790613;80;20260;-80
2021/05/23 08:04:24;;;;;;;;;;;36.70;47.30;;;;;;1809419;78;20226;-80
2021/05/23 08:06:54;;;;;;;;;;;36.80;46.10;;;;;;1786969;80;20229;-80
2021/05/23 08:09:25;;;;;;;;;;;36.80;45.80;;;;;;1831657;78;20188;-78
2021/05/23 08:11:59;;;;;;;;;;;36.90;45.80;;;;;;1830163;78;20172;-79
2021/05/23 08:14:33;;;;;;;;;;;36.90;47.20;;;;;;1833478;78;20136;-79
2021/05/23 08:17:05;;;;;;;;;;;36.90;46.50;;;;;;1828162;78;20175;-80
2021/05/23 08:19:35;;;;;;;;;;;36.90;47.30;;;;;;1836725;78;20207;-80
2021/05/23 08:22:05;;;;;;;;;;;36.80;47.80;;;;;;1831423;77;20206;-80
2021/05/23 08:24:35;;;;;;;;;;;36.80;47.50;;;;;;1827681;78;20266;-81
2021/05/23 08:27:05;;;;;;;;;;;36.80;47.70;;;;;;1826448;78;20219;-77
2021/05/23 08:29:36;;;;;;;;;;;36.80;47.80;;;;;;1825714;77;20308;-79
2021/05/23 08:32:05;;;;;;;;;;;36.70;48.20;;;;;;1827607;78;20223;-79
2021/05/23 08:34:35;;;;;;;;;;;36.60;48.10;;;;;;1831579;77;20208;-83
2021/05/23 08:37:05;;;;;;;;;;;36.60;48.30;;;;;;1833922;77;20208;-81
2021/05/23 08:39:35;;;;;;;;;;;36.60;48.90;;;;;;1843577;77;20236;-83
2021/05/23 08:42:06;;;;;;;;;;;36.60;48.80;;;;;;1828349;78;20227;-82
2021/05/23 08:44:35;;;;;;;;;;;36.60;49.40;;;;;;1829678;77;20169;-82
2021/05/23 08:47:05;;;;;;;;;;;36.60;48.60;;;;;;1845339;77;20250;-81
2021/05/23 08:49:35;;;;;;;;;;;36.60;49.00;;;;;;1836172;77;20167;-82
2021/05/23 08:52:06;;;;;;;;;;;36.70;48.20;;;;;;1824610;77;20257;-79
2021/05/23 08:54:41;;;;;;;;;;;36.60;48.60;;;;;;1823225;76;20205;-79
2021/05/23 08:57:07;;;;;;;;;;;36.60;49.20;;;;;;1827605;78;20208;-78
2021/05/23 08:59:38;;;;;;;;;;;36.60;48.80;;;;;;1826310;77;20259;-81
2021/05/23 09:02:09;;;;;;;;;;;36.60;49.70;;;;;;1824528;77;20167;-80
2021/05/23 09:04:41;;;;;;;;;;;36.60;50.10;;;;;;1830074;77;20231;-80
2021/05/23 09:07:11;;;;;;;;;;;36.60;49.20;;;;;;1780669;78;20420;-80
2021/05/23 09:09:42;;;;;;;;;;;36.60;49.70;;;;;;1782723;80;20256;-79
2021/05/23 09:12:14;;;;;;;;;;;36.50;49.80;;;;;;1784113;79;20132;-80
2021/05/23 09:14:45;;;;;;;;;;;36.50;49.80;;;;;;1816844;78;20199;-80
2021/05/23 09:17:16;;;;;;;;;;;36.40;49.60;;;;;;1794659;79;20185;-80
2021/05/23 09:19:46;;;;;;;;;;;36.40;49.10;;;;;;1824903;78;20316;-81
2021/05/23 09:22:18;;;;;;;;;;;36.30;49.70;;;;;;1819527;78;20431;-81
2021/05/23 09:24:49;;;;;;;;;;;36.30;49.90;;;;;;1822725;78;20220;-80
2021/05/23 09:27:20;;;;;;;;;;;36.30;50.40;;;;;;1823474;78;20784;-79
2021/05/23 09:29:51;;;;;;;;;;;36.30;50.70;;;;;;1824486;78;20220;-80
2021/05/23 09:32:21;;;;;;;;;;;36.30;49.80;;;;;;1828973;78;20215;-79
2021/05/23 09:34:52;;;;;;;;;;;36.20;49.90;;;;;;1824856;78;20463;-79
2021/05/23 09:37:21;;;;;;;;;;;36.20;50.50;;;;;;1823480;78;20211;-80
2021/05/23 09:39:51;;;;;;;;;;;36.20;51.60;;;;;;1824583;78;20195;-79
2021/05/23 09:42:23;;;;;;;;;;;36.30;52.30;;;;;;1828227;77;20526;-82
2021/05/23 09:44:54;;;;;;;;;;;36.20;52.00;;;;;;1833702;76;20204;-83
2021/05/23 09:47:24;;;;;;;;;;;36.30;51.50;;;;;;1823755;78;20196;-82
2021/05/23 09:49:55;;;;;;;;;;;36.30;51.20;;;;;;1827646;78;20850;-82
2021/05/23 09:52:31;;;;;;;;;;;36.30;51.30;;;;;;1814284;78;20220;-81
2021/05/23 09:55:02;;;;;;;;;;;36.20;51.40;;;;;;1825491;77;20202;-82
2021/05/23 09:57:30;;;;;;;;;;;36.20;51.30;;;;;;1818754;78;20182;-82
2021/05/23 10:00:19;;;;;;;;;;;36.20;50.80;;;;;;1823144;78;20199;-83
2021/05/23 10:02:51;;;;;;;;;;;36.20;50.70;;;;;;1803282;79;20212;-82
2021/05/23 10:05:23;;;;;;;;;;;36.10;50.70;;;;;;1799913;78;20218;-83
2021/05/23 10:07:54;;;;;;;;;;;36.10;50.70;;;;;;1780673;78;20184;-83
2021/05/23 10:10:26;;;;;;;;;;;36.10;51.80;;;;;;1766015;80;20159;-82
2021/05/23 10:12:56;;;;;;;;;;;36.10;50.90;;;;;;1766420;80;20249;-82
2021/05/23 10:15:26;;;;;;;;;;;36.10;50.70;;;;;;1760100;80;20200;-84
2021/05/23 10:17:57;;;;;;;;;;;36.00;51.10;;;;;;1759693;80;20264;-84
2021/05/23 10:20:28;;;;;;;;;;;36.00;51.40;;;;;;1752667;79;20214;-83
2021/05/23 10:22:59;;;;;;;;;;;35.90;51.00;;;;;;1795918;79;20231;-85
2021/05/23 10:25:29;;;;;;;;;;;35.90;51.20;;;;;;1799626;78;20210;-80
2021/05/23 10:28:00;;;;;;;;;;;35.90;51.30;;;;;;1795656;78;20255;-82
2021/05/23 10:30:31;;;;;;;;;;;35.80;52.30;;;;;;1791887;77;20216;-82
2021/05/23 10:33:02;;;;;;;;;;;35.80;51.50;;;;;;1787581;79;20165;-82
2021/05/23 10:35:34;;;;;;;;;;;35.80;51.80;;;;;;1794652;79;20564;-82
2021/05/23 10:38:04;;;;;;;;;;;35.80;51.90;;;;;;1793627;79;20195;-81
2021/05/23 10:40:36;;;;;;;;;;;35.70;52.00;;;;;;1818289;78;20208;-82
2021/05/23 10:43:06;;;;;;;;;;;35.70;52.80;;;;;;1773689;79;20508;-81
2021/05/23 10:46:16;;;;;;;;;;;35.70;52.40;;;;;;1786936;79;20223;-83
2021/05/23 10:48:44;;;;;;;;;;;35.60;52.50;;;;;;1786063;79;20510;-81
2021/05/23 10:51:15;;;;;;;;;;;35.60;52.10;;;;;;1746125;81;20664;-80
2021/05/23 10:54:04;;;;;;;;;;;35.60;52.20;;;;;;1668543;83;20482;-81
2021/05/23 10:56:34;;;;;;;;;;;35.60;52.20;;;;;;1683595;83;20257;-83
2021/05/23 10:59:05;;;;;;;;;;;35.60;52.50;;;;;;1725767;83;20271;-83
2021/05/23 11:01:37;;;;;;;;;;;35.60;52.50;;;;;;1705013;83;20267;-82
2021/05/23 11:04:08;;;;;;;;;;;35.60;53.30;;;;;;1707781;83;20275;-84
2021/05/23 11:06:40;;;;;;;;;;;35.50;52.20;;;;;;1719826;82;20265;-80
2021/05/23 11:09:11;;;;;;;;;;;35.50;52.60;;;;;;1725399;82;20329;-80
2021/05/23 11:11:41;;;;;;;;;;;35.50;53.10;;;;;;1716839;83;20254;-81
2021/05/23 11:14:17;;;;;;;;;;;35.40;52.40;;;;;;1724488;81;20269;-81
2021/05/23 11:17:15;;;;;;;;;;;35.40;52.50;;;;;;1721757;81;20272;-80
2021/05/23 11:19:45;;;;;;;;;;;35.40;52.70;;;;;;1694880;83;20324;-81
2021/05/23 11:22:15;;;;;;;;;;;35.40;53.50;;;;;;1721522;82;20633;-80
2021/05/23 11:24:45;;;;;;;;;;;35.40;52.50;;;;;;1717034;81;20243;-80
2021/05/23 11:27:19;;;;;;;;;;;35.30;52.90;;;;;;1714138;81;20310;-80
2021/05/23 11:29:49;;;;;;;;;;;35.40;53.00;;;;;;1711981;82;20586;-80
2021/05/23 11:32:19;;;;;;;;;;;35.30;53.10;;;;;;1766023;79;20250;-80
2021/05/23 11:34:49;;;;;;;;;;;35.30;53.40;;;;;;1793985;79;20216;-80
2021/05/23 11:37:19;;;;;;;;;;;35.20;53.40;;;;;;1813506;77;20216;-80
2021/05/23 11:39:49;;;;;;;;;;;35.20;53.60;;;;;;1802432;77;20518;-81
2021/05/23 11:42:19;;;;;;;;;;;35.20;53.40;;;;;;1792762;79;20200;-81
2021/05/23 11:44:48;;;;;;;;;;;35.20;53.30;;;;;;1802901;79;20133;-81
2021/05/23 11:47:19;;;;;;;;;;;35.20;53.30;;;;;;1744864;81;20189;-81
2021/05/23 11:49:49;;;;;;;;;;;35.20;53.30;;;;;;1732186;82;20483;-81
2021/05/23 11:52:19;;;;;;;;;;;35.10;53.30;;;;;;1730965;81;20472;-79
2021/05/23 11:54:50;;;;;;;;;;;35.10;53.20;;;;;;1748539;80;20378;-80
2021/05/23 11:57:20;;;;;;;;;;;35.10;53.30;;;;;;1789803;79;20362;-80
2021/05/23 11:59:50;;;;;;;;;;;35.10;53.30;;;;;;1787449;78;20192;-80
2021/05/23 12:02:21;;;;;;;;;;;35.10;53.50;;;;;;1795126;78;20188;-80
2021/05/23 12:04:52;;;;;;;;;;;35.10;53.70;;;;;;1795586;78;20184;-80
2021/05/23 12:07:22;;;;;;;;;;;35.10;53.70;;;;;;1804342;78;20181;-80
2021/05/23 12:09:57;;;;;;;;;;;35.10;53.80;;;;;;1809264;78;20188;-80
2021/05/23 12:12:24;;;;;;;;;;;35.00;53.90;;;;;;1750765;80;20241;-80
2021/05/23 12:14:54;;;;;;;;;;;35.00;54.30;;;;;;1749217;81;20491;-80
2021/05/23 12:17:24;;;;;;;;;;;34.90;54.40;;;;;;1733215;80;20207;-81
2021/05/23 12:19:56;;;;;;;;;;;35.00;54.60;;;;;;1757033;81;20226;-80
2021/05/23 12:22:28;;;;;;;;;;;34.90;54.70;;;;;;1736279;81;20168;-80
2021/05/23 12:25:00;;;;;;;;;;;34.90;55.00;;;;;;1783681;79;20477;-81
2021/05/23 12:27:32;;;;;;;;;;;34.90;55.10;;;;;;1798431;79;20185;-80
2021/05/23 12:30:03;;;;;;;;;;;34.80;55.10;;;;;;1793081;78;20172;-80
2021/05/23 12:32:34;;;;;;;;;;;34.80;55.30;;;;;;1808387;79;20208;-81
2021/05/23 12:35:05;;;;;;;;;;;34.80;55.50;;;;;;1803475;78;20197;-81
2021/05/23 12:37:35;;;;;;;;;;;34.80;55.50;;;;;;1805214;78;20184;-80
2021/05/23 12:40:06;;;;;;;;;;;34.70;55.50;;;;;;1794761;79;20165;-81
2021/05/23 12:42:36;;;;;;;;;;;34.70;55.50;;;;;;1733698;81;20234;-81
2021/05/23 12:45:07;;;;;;;;;;;34.70;55.50;;;;;;1807605;78;20268;-81
2021/05/23 12:47:38;;;;;;;;;;;34.70;55.50;;;;;;1800671;79;20190;-80
2021/05/23 12:50:08;;;;;;;;;;;34.70;55.60;;;;;;1797486;78;20216;-80
2021/05/23 12:52:38;;;;;;;;;;;34.70;55.60;;;;;;1757995;79;20192;-82
2021/05/23 12:55:10;;;;;;;;;;;34.60;55.80;;;;;;1810552;77;20266;-81
2021/05/23 12:57:44;;;;;;;;;;;34.60;56.00;;;;;;1803895;78;20275;-81
2021/05/23 13:00:15;;;;;;;;;;;34.60;56.10;;;;;;1805849;77;20176;-79
2021/05/23 13:02:48;;;;;;;;;;;34.60;56.10;;;;;;1798969;78;20206;-85
2021/05/23 13:05:23;;;;;;;;;;;34.50;56.10;;;;;;1796848;78;20204;-89
2021/05/23 13:08:24;;;;;;;;;;;34.50;56.20;;;;;;1807909;78;20222;-90
2021/05/23 13:10:53;;;;;;;;;;;34.50;55.90;;;;;;1800522;77;20180;-89
2021/05/23 13:13:26;;;;;;;;;;;34.40;55.80;;;;;;1806064;78;20224;-89
2021/05/23 13:16:02;;;;;;;;;;;34.50;55.90;;;;;;1801243;78;20715;-87
2021/05/23 13:24:41;;;;;;;;;;;34.30;56.00;;;;;;1766512;80;20205;-89
2021/05/23 13:27:16;;;;;;;;;;;34.30;57.00;;;;;;1736155;82;20260;-89
2021/05/23 13:33:02;;;;;;;;;;;34.30;56.30;;;;;;1677796;83;20288;-89
2021/05/23 13:35:32;;;;;;;;;;;34.20;56.20;;;;;;1703731;83;20301;-88
2021/05/23 13:38:03;;;;;;;;;;;34.20;56.20;;;;;;1720195;83;20383;-89
2021/05/23 13:40:34;;;;;;;;;;;34.20;56.40;;;;;;1712840;82;20247;-89
2021/05/23 13:43:04;;;;;;;;;;;34.20;56.20;;;;;;1712604;81;20217;-89
2021/05/23 13:45:36;;;;;;;;;;;34.20;56.10;;;;;;1749853;80;20223;-88
2021/05/23 13:48:06;;;;;;;;;;;34.20;56.30;;;;;;1741141;80;20164;-89
2021/05/23 13:50:38;;;;;;;;;;;34.20;56.40;;;;;;1708422;83;20279;-90
2021/05/23 13:53:24;;;;;;;;;;;34.10;56.50;;;;;;1708144;83;20307;-90
2021/05/23 13:55:57;;;;;;;;;;;34.10;56.50;;;;;;1714816;80;20441;-90
2021/05/23 13:58:49;;;;;;;;;;;34.10;56.70;;;;;;1714507;82;20258;-91
2021/05/23 14:01:20;;;;;;;;;;;34.10;56.90;;;;;;1761478;77;20430;-91
2021/05/23 14:03:53;;;;;;;;;;;34.00;57.00;;;;;;1772790;78;20272;-91
2021/05/23 14:06:47;;;;;;;;;;;34.00;57.30;;;;;;1815101;75;20133;-91
2021/05/23 14:09:27;;;;;;;;;;;34.00;57.40;;;;;;1661502;82;20545;-92
2021/05/23 14:11:59;;;;;;;;;;;33.90;57.60;;;;;;1710183;80;20235;-90
2021/05/23 14:14:29;;;;;;;;;;;33.90;57.90;;;;;;1732765;80;20144;-89
2021/05/23 14:17:03;;;;;;;;;;;33.90;58.20;;;;;;1726220;81;20295;-90
2021/05/23 14:19:57;;;;;;;;;;;33.90;58.40;;;;;;1725847;80;20220;-90
2021/05/23 14:22:26;;;;;;;;;;;33.90;58.50;;;;;;1726898;81;20160;-89
2021/05/23 14:24:57;;;;;;;;;;;33.80;58.60;;;;;;1693887;80;20203;-90
2021/05/23 14:27:28;;;;;;;;;;;33.80;58.60;;;;;;1702661;82;20188;-90
2021/05/23 14:29:59;;;;;;;;;;;33.80;58.90;;;;;;1717716;80;20110;-90
2021/05/23 14:32:36;;;;;;;;;;;33.80;59.20;;;;;;1749662;80;20218;-90
2021/05/23 14:35:13;;;;;;;;;;;33.80;59.50;;;;;;1750410;80;20222;-87
2021/05/23 14:37:44;;;;;;;;;;;33.70;59.70;;;;;;1760632;80;20270;-90
2021/05/23 14:40:17;;;;;;;;;;;33.70;60.30;;;;;;1767638;79;20165;-90
2021/05/23 14:43:10;;;;;;;;;;;33.60;60.30;;;;;;1809099;79;20672;-90
2021/05/23 14:45:39;;;;;;;;;;;33.60;60.80;;;;;;1798201;78;20227;-89
2021/05/23 14:48:14;;;;;;;;;;;33.60;60.90;;;;;;1809377;76;20174;-89
2021/05/23 14:53:22;;;;;;;;;;;33.50;61.50;;;;;;1794735;79;20210;-88
2021/05/23 14:56:07;;;;;;;;;;;33.50;61.60;;;;;;1767391;79;20128;-90
2021/05/23 14:58:46;;;;;;;;;;;33.40;61.70;;;;;;1798294;78;20936;-90
2021/05/23 15:01:19;;;;;;;;;;;33.40;61.50;;;;;;1795307;77;20209;-90
2021/05/23 15:03:49;;;;;;;;;;;33.40;61.70;;;;;;1814799;77;20108;-91
2021/05/23 15:06:22;;;;;;;;;;;33.40;61.50;;;;;;1820126;77;20187;-90